sensor_id;sensor_type;location;lat;lon;timestamp;P1;durP1;ratioP1;P2;durP2;ratioP2
63217;SDS011;49314;48.278;16.378;2022-11-23T00:00:34;9.15;;;8.13;;
63217;SDS011;49314;48.278;16.378;2022-11-23T00:02:59;9.82;;;8.82;;
63217;SDS011;49314;48.278;16.378;2022-11-23T00:05:26;8.57;;;7.78;;
63217;SDS011;49314;48.278;16.378;2022-11-23T00:07:51;12.80;;;10.32;;
63217;SDS011;49314;48.278;16.378;2022-11-23T00:10:17;9.52;;;8.63;;
63217;SDS011;49314;48.278;16.378;2022-11-23T00:12:42;9.55;;;8.25;;
63217;SDS011;49314;48.278;16.378;2022-11-23T00:15:08;9.25;;;7.50;;
63217;SDS011;49314;48.278;16.378;2022-11-23T00:17:33;9.10;;;7.97;;
63217;SDS011;49314;48.278;16.378;2022-11-23T00:19:59;8.52;;;7.82;;
63217;SDS011;49314;48.278;16.378;2022-11-23T00:22:24;9.30;;;8.40;;
63217;SDS011;49314;48.278;16.378;2022-11-23T00:24:49;10.50;;;8.83;;
63217;SDS011;49314;48.278;16.378;2022-11-23T00:27:14;7.55;;;6.85;;
63217;SDS011;49314;48.278;16.378;2022-11-23T00:29:40;8.90;;;8.10;;
63217;SDS011;49314;48.278;16.378;2022-11-23T00:32:05;10.53;;;9.53;;
63217;SDS011;49314;48.278;16.378;2022-11-23T00:34:30;9.48;;;8.27;;
63217;SDS011;49314;48.278;16.378;2022-11-23T00:36:55;9.60;;;8.70;;
63217;SDS011;49314;48.278;16.378;2022-11-23T00:39:21;9.00;;;8.10;;
63217;SDS011;49314;48.278;16.378;2022-11-23T00:41:46;9.82;;;8.93;;
63217;SDS011;49314;48.278;16.378;2022-11-23T00:44:11;9.03;;;8.07;;
63217;SDS011;49314;48.278;16.378;2022-11-23T00:46:37;8.40;;;7.70;;
63217;SDS011;49314;48.278;16.378;2022-11-23T00:49:02;9.53;;;8.67;;
63217;SDS011;49314;48.278;16.378;2022-11-23T00:51:29;9.05;;;8.18;;
63217;SDS011;49314;48.278;16.378;2022-11-23T00:53:54;8.68;;;7.63;;
63217;SDS011;49314;48.278;16.378;2022-11-23T00:56:20;7.90;;;7.30;;
63217;SDS011;49314;48.278;16.378;2022-11-23T00:58:48;8.65;;;7.85;;
63217;SDS011;49314;48.278;16.378;2022-11-23T01:01:15;9.02;;;8.20;;
63217;SDS011;49314;48.278;16.378;2022-11-23T01:03:42;8.57;;;7.68;;
63217;SDS011;49314;48.278;16.378;2022-11-23T01:06:12;9.05;;;7.90;;
63217;SDS011;49314;48.278;16.378;2022-11-23T01:08:37;9.38;;;8.57;;
63217;SDS011;49314;48.278;16.378;2022-11-23T01:11:04;7.78;;;7.07;;
63217;SDS011;49314;48.278;16.378;2022-11-23T01:13:30;9.43;;;8.70;;
63217;SDS011;49314;48.278;16.378;2022-11-23T01:15:55;9.32;;;8.52;;
63217;SDS011;49314;48.278;16.378;2022-11-23T01:18:21;8.32;;;7.78;;
63217;SDS011;49314;48.278;16.378;2022-11-23T01:20:46;9.63;;;8.82;;
63217;SDS011;49314;48.278;16.378;2022-11-23T01:23:11;8.57;;;7.68;;
63217;SDS011;49314;48.278;16.378;2022-11-23T01:25:36;8.97;;;7.73;;
63217;SDS011;49314;48.278;16.378;2022-11-23T01:28:02;9.40;;;8.60;;
63217;SDS011;49314;48.278;16.378;2022-11-23T01:30:27;7.97;;;7.28;;
63217;SDS011;49314;48.278;16.378;2022-11-23T01:32:52;8.02;;;7.30;;
63217;SDS011;49314;48.278;16.378;2022-11-23T01:35:17;8.07;;;7.47;;
63217;SDS011;49314;48.278;16.378;2022-11-23T01:37:43;9.57;;;8.77;;
63217;SDS011;49314;48.278;16.378;2022-11-23T01:40:08;8.00;;;7.03;;
63217;SDS011;49314;48.278;16.378;2022-11-23T01:48:02;8.20;;;7.45;;
63217;SDS011;49314;48.278;16.378;2022-11-23T01:50:28;8.80;;;8.18;;
63217;SDS011;49314;48.278;16.378;2022-11-23T01:52:54;8.38;;;7.68;;
63217;SDS011;49314;48.278;16.378;2022-11-23T01:55:20;9.70;;;8.90;;
63217;SDS011;49314;48.278;16.378;2022-11-23T01:57:45;8.30;;;7.57;;
63217;SDS011;49314;48.278;16.378;2022-11-23T02:00:11;9.10;;;8.40;;
63217;SDS011;49314;48.278;16.378;2022-11-23T02:02:37;8.70;;;7.90;;
63217;SDS011;49314;48.278;16.378;2022-11-23T02:05:04;9.10;;;8.30;;
63217;SDS011;49314;48.278;16.378;2022-11-23T02:07:30;9.00;;;8.30;;
63217;SDS011;49314;48.278;16.378;2022-11-23T02:09:56;8.68;;;7.88;;
63217;SDS011;49314;48.278;16.378;2022-11-23T02:12:21;8.38;;;7.60;;
63217;SDS011;49314;48.278;16.378;2022-11-23T02:14:47;8.77;;;8.07;;
63217;SDS011;49314;48.278;16.378;2022-11-23T02:17:12;8.83;;;8.13;;
63217;SDS011;49314;48.278;16.378;2022-11-23T02:22:28;8.38;;;7.75;;
63217;SDS011;49314;48.278;16.378;2022-11-23T02:24:55;8.63;;;8.02;;
63217;SDS011;49314;48.278;16.378;2022-11-23T02:27:20;9.00;;;8.35;;
63217;SDS011;49314;48.278;16.378;2022-11-23T02:29:46;8.48;;;7.55;;
63217;SDS011;49314;48.278;16.378;2022-11-23T02:32:16;6.93;;;6.32;;
63217;SDS011;49314;48.278;16.378;2022-11-23T02:34:42;8.07;;;7.47;;
63217;SDS011;49314;48.278;16.378;2022-11-23T02:37:07;7.57;;;6.97;;
63217;SDS011;49314;48.278;16.378;2022-11-23T02:39:33;7.55;;;6.95;;
63217;SDS011;49314;48.278;16.378;2022-11-23T02:42:00;7.28;;;6.78;;
63217;SDS011;49314;48.278;16.378;2022-11-23T02:46:57;9.20;;;8.40;;
63217;SDS011;49314;48.278;16.378;2022-11-23T02:49:23;8.80;;;8.13;;
63217;SDS011;49314;48.278;16.378;2022-11-23T02:51:48;9.30;;;8.57;;
63217;SDS011;49314;48.278;16.378;2022-11-23T02:54:14;7.77;;;7.23;;
63217;SDS011;49314;48.278;16.378;2022-11-23T02:56:39;8.20;;;7.53;;
63217;SDS011;49314;48.278;16.378;2022-11-23T02:59:05;7.38;;;6.97;;
63217;SDS011;49314;48.278;16.378;2022-11-23T03:01:30;7.78;;;7.18;;
63217;SDS011;49314;48.278;16.378;2022-11-23T03:03:55;8.03;;;7.43;;
63217;SDS011;49314;48.278;16.378;2022-11-23T03:06:21;7.70;;;7.20;;
63217;SDS011;49314;48.278;16.378;2022-11-23T03:08:46;7.23;;;6.67;;
63217;SDS011;49314;48.278;16.378;2022-11-23T03:11:11;8.93;;;8.27;;
63217;SDS011;49314;48.278;16.378;2022-11-23T03:13:36;7.50;;;7.00;;
63217;SDS011;49314;48.278;16.378;2022-11-23T03:16:02;6.97;;;6.47;;
63217;SDS011;49314;48.278;16.378;2022-11-23T03:18:27;8.40;;;7.78;;
63217;SDS011;49314;48.278;16.378;2022-11-23T03:20:52;7.60;;;7.03;;
63217;SDS011;49314;48.278;16.378;2022-11-23T03:23:17;7.90;;;7.40;;
63217;SDS011;49314;48.278;16.378;2022-11-23T03:25:42;6.43;;;5.93;;
63217;SDS011;49314;48.278;16.378;2022-11-23T03:28:08;7.27;;;6.77;;
63217;SDS011;49314;48.278;16.378;2022-11-23T03:30:33;7.33;;;6.83;;
63217;SDS011;49314;48.278;16.378;2022-11-23T03:32:58;6.40;;;5.90;;
63217;SDS011;49314;48.278;16.378;2022-11-23T03:35:23;7.83;;;7.33;;
63217;SDS011;49314;48.278;16.378;2022-11-23T03:37:48;7.77;;;7.13;;
63217;SDS011;49314;48.278;16.378;2022-11-23T03:40:14;8.07;;;7.57;;
63217;SDS011;49314;48.278;16.378;2022-11-23T03:42:39;7.45;;;6.85;;
63217;SDS011;49314;48.278;16.378;2022-11-23T03:45:04;8.13;;;7.53;;
63217;SDS011;49314;48.278;16.378;2022-11-23T03:47:30;8.27;;;7.68;;
63217;SDS011;49314;48.278;16.378;2022-11-23T03:49:55;7.90;;;7.40;;
63217;SDS011;49314;48.278;16.378;2022-11-23T03:52:20;6.72;;;6.22;;
63217;SDS011;49314;48.278;16.378;2022-11-23T03:54:45;7.60;;;7.00;;
63217;SDS011;49314;48.278;16.378;2022-11-23T03:57:11;8.27;;;7.75;;
63217;SDS011;49314;48.278;16.378;2022-11-23T03:59:36;7.27;;;6.77;;
63217;SDS011;49314;48.278;16.378;2022-11-23T04:02:01;7.37;;;6.80;;
63217;SDS011;49314;48.278;16.378;2022-11-23T04:04:27;6.80;;;6.30;;
63217;SDS011;49314;48.278;16.378;2022-11-23T04:06:52;7.67;;;7.17;;
63217;SDS011;49314;48.278;16.378;2022-11-23T04:09:17;7.22;;;6.75;;
63217;SDS011;49314;48.278;16.378;2022-11-23T04:11:42;8.07;;;7.47;;
63217;SDS011;49314;48.278;16.378;2022-11-23T04:14:07;6.73;;;6.23;;
63217;SDS011;49314;48.278;16.378;2022-11-23T04:16:33;6.63;;;6.13;;
63217;SDS011;49314;48.278;16.378;2022-11-23T04:18:58;6.43;;;5.93;;
63217;SDS011;49314;48.278;16.378;2022-11-23T04:21:23;8.40;;;7.80;;
63217;SDS011;49314;48.278;16.378;2022-11-23T04:23:48;7.57;;;6.97;;
63217;SDS011;49314;48.278;16.378;2022-11-23T04:26:13;7.37;;;6.90;;
63217;SDS011;49314;48.278;16.378;2022-11-23T04:28:39;7.47;;;6.90;;
63217;SDS011;49314;48.278;16.378;2022-11-23T04:31:04;6.57;;;5.97;;
63217;SDS011;49314;48.278;16.378;2022-11-23T04:33:29;6.93;;;6.53;;
63217;SDS011;49314;48.278;16.378;2022-11-23T04:35:55;7.43;;;6.88;;
63217;SDS011;49314;48.278;16.378;2022-11-23T04:38:20;6.85;;;6.35;;
63217;SDS011;49314;48.278;16.378;2022-11-23T04:40:46;7.17;;;6.67;;
63217;SDS011;49314;48.278;16.378;2022-11-23T04:43:12;7.07;;;6.57;;
63217;SDS011;49314;48.278;16.378;2022-11-23T04:45:38;7.32;;;6.82;;
63217;SDS011;49314;48.278;16.378;2022-11-23T04:48:04;7.68;;;7.07;;
63217;SDS011;49314;48.278;16.378;2022-11-23T04:50:29;7.03;;;6.55;;
63217;SDS011;49314;48.278;16.378;2022-11-23T04:52:54;6.73;;;6.17;;
63217;SDS011;49314;48.278;16.378;2022-11-23T04:55:19;7.70;;;7.20;;
63217;SDS011;49314;48.278;16.378;2022-11-23T04:57:45;7.97;;;7.47;;
63217;SDS011;49314;48.278;16.378;2022-11-23T05:00:10;6.63;;;6.23;;
63217;SDS011;49314;48.278;16.378;2022-11-23T05:02:35;6.32;;;5.93;;
63217;SDS011;49314;48.278;16.378;2022-11-23T05:05:01;6.90;;;6.50;;
63217;SDS011;49314;48.278;16.378;2022-11-23T05:07:26;6.17;;;5.67;;
63217;SDS011;49314;48.278;16.378;2022-11-23T05:09:51;7.50;;;7.00;;
63217;SDS011;49314;48.278;16.378;2022-11-23T05:12:16;6.27;;;5.77;;
63217;SDS011;49314;48.278;16.378;2022-11-23T05:14:41;6.28;;;5.88;;
63217;SDS011;49314;48.278;16.378;2022-11-23T05:17:07;7.32;;;6.72;;
63217;SDS011;49314;48.278;16.378;2022-11-23T05:19:32;7.17;;;6.67;;
63217;SDS011;49314;48.278;16.378;2022-11-23T05:21:57;6.90;;;6.50;;
63217;SDS011;49314;48.278;16.378;2022-11-23T05:24:22;7.07;;;6.60;;
63217;SDS011;49314;48.278;16.378;2022-11-23T05:26:48;7.17;;;6.67;;
63217;SDS011;49314;48.278;16.378;2022-11-23T05:29:13;6.83;;;6.33;;
63217;SDS011;49314;48.278;16.378;2022-11-23T05:31:38;7.23;;;6.73;;
63217;SDS011;49314;48.278;16.378;2022-11-23T05:34:03;7.57;;;7.07;;
63217;SDS011;49314;48.278;16.378;2022-11-23T05:36:29;7.30;;;6.80;;
63217;SDS011;49314;48.278;16.378;2022-11-23T05:38:54;7.10;;;6.70;;
63217;SDS011;49314;48.278;16.378;2022-11-23T05:41:19;7.13;;;6.63;;
63217;SDS011;49314;48.278;16.378;2022-11-23T05:43:45;7.03;;;6.63;;
63217;SDS011;49314;48.278;16.378;2022-11-23T05:46:10;7.25;;;6.75;;
63217;SDS011;49314;48.278;16.378;2022-11-23T05:48:35;6.80;;;6.33;;
63217;SDS011;49314;48.278;16.378;2022-11-23T05:51:00;6.97;;;6.47;;
63217;SDS011;49314;48.278;16.378;2022-11-23T05:53:25;7.27;;;6.77;;
63217;SDS011;49314;48.278;16.378;2022-11-23T05:55:51;7.40;;;7.00;;
63217;SDS011;49314;48.278;16.378;2022-11-23T05:58:16;7.07;;;6.57;;
63217;SDS011;49314;48.278;16.378;2022-11-23T06:00:41;7.50;;;7.07;;
63217;SDS011;49314;48.278;16.378;2022-11-23T06:03:06;7.03;;;6.57;;
63217;SDS011;49314;48.278;16.378;2022-11-23T06:05:32;6.82;;;6.43;;
63217;SDS011;49314;48.278;16.378;2022-11-23T06:07:57;6.50;;;6.13;;
63217;SDS011;49314;48.278;16.378;2022-11-23T06:10:22;8.03;;;7.53;;
63217;SDS011;49314;48.278;16.378;2022-11-23T06:12:47;7.82;;;7.35;;
63217;SDS011;49314;48.278;16.378;2022-11-23T06:15:14;6.20;;;5.80;;
63217;SDS011;49314;48.278;16.378;2022-11-23T06:17:39;6.68;;;6.28;;
63217;SDS011;49314;48.278;16.378;2022-11-23T06:20:05;7.60;;;7.10;;
63217;SDS011;49314;48.278;16.378;2022-11-23T06:22:30;7.50;;;7.00;;
63217;SDS011;49314;48.278;16.378;2022-11-23T06:24:56;7.47;;;6.97;;
63217;SDS011;49314;48.278;16.378;2022-11-23T06:27:21;7.07;;;6.67;;
63217;SDS011;49314;48.278;16.378;2022-11-23T06:29:46;7.10;;;6.70;;
63217;SDS011;49314;48.278;16.378;2022-11-23T06:32:11;7.13;;;6.63;;
63217;SDS011;49314;48.278;16.378;2022-11-23T06:34:37;6.88;;;6.38;;
63217;SDS011;49314;48.278;16.378;2022-11-23T06:37:02;7.03;;;6.53;;
63217;SDS011;49314;48.278;16.378;2022-11-23T06:39:27;6.83;;;6.33;;
63217;SDS011;49314;48.278;16.378;2022-11-23T06:41:52;6.17;;;5.77;;
63217;SDS011;49314;48.278;16.378;2022-11-23T06:44:18;6.32;;;5.93;;
63217;SDS011;49314;48.278;16.378;2022-11-23T06:46:43;6.80;;;6.40;;
63217;SDS011;49314;48.278;16.378;2022-11-23T06:49:08;6.27;;;5.87;;
63217;SDS011;49314;48.278;16.378;2022-11-23T06:51:33;7.63;;;7.13;;
63217;SDS011;49314;48.278;16.378;2022-11-23T06:53:59;7.27;;;6.67;;
63217;SDS011;49314;48.278;16.378;2022-11-23T06:56:24;6.63;;;6.23;;
63217;SDS011;49314;48.278;16.378;2022-11-23T06:58:49;7.53;;;7.03;;
63217;SDS011;49314;48.278;16.378;2022-11-23T07:01:14;7.10;;;6.60;;
63217;SDS011;49314;48.278;16.378;2022-11-23T07:03:40;5.80;;;5.33;;
63217;SDS011;49314;48.278;16.378;2022-11-23T07:06:05;25.50;;;7.20;;
63217;SDS011;49314;48.278;16.378;2022-11-23T07:08:31;5.85;;;5.35;;
63217;SDS011;49314;48.278;16.378;2022-11-23T07:11:01;6.20;;;5.70;;
63217;SDS011;49314;48.278;16.378;2022-11-23T07:13:27;7.65;;;6.85;;
63217;SDS011;49314;48.278;16.378;2022-11-23T07:15:52;6.65;;;6.25;;
63217;SDS011;49314;48.278;16.378;2022-11-23T07:18:17;6.97;;;6.47;;
63217;SDS011;49314;48.278;16.378;2022-11-23T07:20:42;7.00;;;6.43;;
63217;SDS011;49314;48.278;16.378;2022-11-23T07:23:09;7.05;;;6.38;;
63217;SDS011;49314;48.278;16.378;2022-11-23T07:25:35;6.88;;;6.18;;
63217;SDS011;49314;48.278;16.378;2022-11-23T07:28:01;7.65;;;7.05;;
63217;SDS011;49314;48.278;16.378;2022-11-23T07:30:27;7.18;;;6.68;;
63217;SDS011;49314;48.278;16.378;2022-11-23T07:32:52;5.80;;;5.40;;
63217;SDS011;49314;48.278;16.378;2022-11-23T07:35:20;6.90;;;6.47;;
63217;SDS011;49314;48.278;16.378;2022-11-23T07:37:45;6.57;;;6.07;;
63217;SDS011;49314;48.278;16.378;2022-11-23T07:40:11;6.45;;;5.85;;
63217;SDS011;49314;48.278;16.378;2022-11-23T07:42:36;6.60;;;6.13;;
63217;SDS011;49314;48.278;16.378;2022-11-23T07:45:05;6.63;;;6.10;;
63217;SDS011;49314;48.278;16.378;2022-11-23T07:47:30;6.13;;;5.70;;
63217;SDS011;49314;48.278;16.378;2022-11-23T07:49:55;7.03;;;6.53;;
63217;SDS011;49314;48.278;16.378;2022-11-23T07:52:21;5.23;;;4.87;;
63217;SDS011;49314;48.278;16.378;2022-11-23T07:54:46;6.93;;;6.53;;
63217;SDS011;49314;48.278;16.378;2022-11-23T07:57:11;6.00;;;5.50;;
63217;SDS011;49314;48.278;16.378;2022-11-23T07:59:36;6.60;;;6.03;;
63217;SDS011;49314;48.278;16.378;2022-11-23T08:02:01;6.83;;;6.23;;
63217;SDS011;49314;48.278;16.378;2022-11-23T08:04:27;5.70;;;5.23;;
63217;SDS011;49314;48.278;16.378;2022-11-23T08:06:53;6.03;;;5.63;;
63217;SDS011;49314;48.278;16.378;2022-11-23T08:09:19;6.75;;;6.28;;
63217;SDS011;49314;48.278;16.378;2022-11-23T08:11:44;6.07;;;5.57;;
63217;SDS011;49314;48.278;16.378;2022-11-23T08:14:09;6.03;;;5.63;;
63217;SDS011;49314;48.278;16.378;2022-11-23T08:16:35;5.20;;;4.90;;
63217;SDS011;49314;48.278;16.378;2022-11-23T08:19:00;6.80;;;6.23;;
63217;SDS011;49314;48.278;16.378;2022-11-23T08:21:25;6.35;;;5.95;;
63217;SDS011;49314;48.278;16.378;2022-11-23T08:23:50;6.10;;;5.67;;
63217;SDS011;49314;48.278;16.378;2022-11-23T08:26:15;4.83;;;4.53;;
63217;SDS011;49314;48.278;16.378;2022-11-23T08:28:41;6.30;;;5.90;;
63217;SDS011;49314;48.278;16.378;2022-11-23T08:31:07;6.03;;;5.73;;
63217;SDS011;49314;48.278;16.378;2022-11-23T08:33:32;6.43;;;6.03;;
63217;SDS011;49314;48.278;16.378;2022-11-23T08:36:01;6.83;;;6.43;;
63217;SDS011;49314;48.278;16.378;2022-11-23T08:38:26;6.95;;;6.45;;
63217;SDS011;49314;48.278;16.378;2022-11-23T08:40:56;6.47;;;6.07;;
63217;SDS011;49314;48.278;16.378;2022-11-23T08:43:21;6.28;;;5.78;;
63217;SDS011;49314;48.278;16.378;2022-11-23T08:45:46;5.97;;;5.67;;
63217;SDS011;49314;48.278;16.378;2022-11-23T08:48:12;6.33;;;5.93;;
63217;SDS011;49314;48.278;16.378;2022-11-23T08:50:37;6.15;;;5.85;;
63217;SDS011;49314;48.278;16.378;2022-11-23T08:53:03;6.45;;;5.90;;
63217;SDS011;49314;48.278;16.378;2022-11-23T08:55:29;5.40;;;5.07;;
63217;SDS011;49314;48.278;16.378;2022-11-23T08:57:57;6.32;;;6.03;;
63217;SDS011;49314;48.278;16.378;2022-11-23T09:00:23;6.40;;;5.97;;
63217;SDS011;49314;48.278;16.378;2022-11-23T09:02:49;6.00;;;5.70;;
63217;SDS011;49314;48.278;16.378;2022-11-23T09:05:14;6.00;;;5.50;;
63217;SDS011;49314;48.278;16.378;2022-11-23T09:07:39;6.20;;;5.80;;
63217;SDS011;49314;48.278;16.378;2022-11-23T09:10:05;6.63;;;6.23;;
63217;SDS011;49314;48.278;16.378;2022-11-23T09:12:30;5.60;;;5.20;;
63217;SDS011;49314;48.278;16.378;2022-11-23T09:14:55;5.80;;;5.43;;
63217;SDS011;49314;48.278;16.378;2022-11-23T09:17:20;6.50;;;6.20;;
63217;SDS011;49314;48.278;16.378;2022-11-23T09:19:46;6.27;;;5.87;;
63217;SDS011;49314;48.278;16.378;2022-11-23T09:22:12;5.90;;;5.47;;
63217;SDS011;49314;48.278;16.378;2022-11-23T09:24:38;5.93;;;5.63;;
63217;SDS011;49314;48.278;16.378;2022-11-23T09:27:03;5.10;;;4.80;;
63217;SDS011;49314;48.278;16.378;2022-11-23T09:29:28;5.65;;;5.25;;
63217;SDS011;49314;48.278;16.378;2022-11-23T09:31:53;5.67;;;5.17;;
63217;SDS011;49314;48.278;16.378;2022-11-23T09:34:18;5.78;;;5.47;;
63217;SDS011;49314;48.278;16.378;2022-11-23T09:36:44;5.63;;;5.32;;
63217;SDS011;49314;48.278;16.378;2022-11-23T09:39:09;5.83;;;5.43;;
63217;SDS011;49314;48.278;16.378;2022-11-23T09:49:21;5.35;;;4.95;;
63217;SDS011;49314;48.278;16.378;2022-11-23T09:51:46;5.80;;;5.30;;
63217;SDS011;49314;48.278;16.378;2022-11-23T09:54:25;5.05;;;4.75;;
63217;SDS011;49314;48.278;16.378;2022-11-23T09:56:52;5.57;;;5.25;;
63217;SDS011;49314;48.278;16.378;2022-11-23T10:02:02;6.03;;;5.65;;
63217;SDS011;49314;48.278;16.378;2022-11-23T10:04:28;5.45;;;5.15;;
63217;SDS011;49314;48.278;16.378;2022-11-23T10:06:58;5.03;;;4.70;;
63217;SDS011;49314;48.278;16.378;2022-11-23T10:12:03;5.60;;;5.30;;
63217;SDS011;49314;48.278;16.378;2022-11-23T10:14:38;5.38;;;5.07;;
63217;SDS011;49314;48.278;16.378;2022-11-23T10:22:20;5.78;;;5.45;;
63217;SDS011;49314;48.278;16.378;2022-11-23T10:24:47;5.75;;;5.35;;
63217;SDS011;49314;48.278;16.378;2022-11-23T10:27:17;6.32;;;5.82;;
63217;SDS011;49314;48.278;16.378;2022-11-23T10:29:43;6.25;;;5.78;;
63217;SDS011;49314;48.278;16.378;2022-11-23T10:35:03;5.68;;;5.38;;
63217;SDS011;49314;48.278;16.378;2022-11-23T10:37:30;5.07;;;4.68;;
63217;SDS011;49314;48.278;16.378;2022-11-23T10:39:56;5.35;;;5.05;;
63217;SDS011;49314;48.278;16.378;2022-11-23T10:44:46;5.90;;;5.50;;
63217;SDS011;49314;48.278;16.378;2022-11-23T10:47:21;5.60;;;5.30;;
63217;SDS011;49314;48.278;16.378;2022-11-23T10:49:57;5.18;;;4.85;;
63217;SDS011;49314;48.278;16.378;2022-11-23T10:52:27;5.75;;;5.35;;
63217;SDS011;49314;48.278;16.378;2022-11-23T10:54:53;5.78;;;5.38;;
63217;SDS011;49314;48.278;16.378;2022-11-23T10:57:41;5.72;;;5.32;;
63217;SDS011;49314;48.278;16.378;2022-11-23T11:02:43;6.25;;;5.75;;
63217;SDS011;49314;48.278;16.378;2022-11-23T11:05:14;5.38;;;5.07;;
63217;SDS011;49314;48.278;16.378;2022-11-23T11:07:39;5.10;;;4.80;;
63217;SDS011;49314;48.278;16.378;2022-11-23T11:10:05;4.68;;;4.38;;
63217;SDS011;49314;48.278;16.378;2022-11-23T11:12:33;5.18;;;4.85;;
63217;SDS011;49314;48.278;16.378;2022-11-23T11:17:33;5.88;;;5.47;;
63217;SDS011;49314;48.278;16.378;2022-11-23T11:19:59;3.87;;;3.57;;
63217;SDS011;49314;48.278;16.378;2022-11-23T11:22:32;5.50;;;5.18;;
63217;SDS011;49314;48.278;16.378;2022-11-23T11:24:58;5.95;;;5.55;;
63217;SDS011;49314;48.278;16.378;2022-11-23T11:27:23;6.07;;;5.68;;
63217;SDS011;49314;48.278;16.378;2022-11-23T11:29:51;5.60;;;5.13;;
63217;SDS011;49314;48.278;16.378;2022-11-23T11:32:37;6.03;;;5.53;;
63217;SDS011;49314;48.278;16.378;2022-11-23T11:35:13;6.05;;;5.47;;
63217;SDS011;49314;48.278;16.378;2022-11-23T11:37:41;6.95;;;6.35;;
63217;SDS011;49314;48.278;16.378;2022-11-23T11:42:43;6.47;;;6.07;;
63217;SDS011;49314;48.278;16.378;2022-11-23T11:45:21;6.18;;;5.53;;
63217;SDS011;49314;48.278;16.378;2022-11-23T11:47:50;6.13;;;5.10;;
63217;SDS011;49314;48.278;16.378;2022-11-23T11:50:19;5.90;;;5.32;;
63217;SDS011;49314;48.278;16.378;2022-11-23T11:52:45;6.03;;;5.47;;
63217;SDS011;49314;48.278;16.378;2022-11-23T11:55:17;6.32;;;5.88;;
63217;SDS011;49314;48.278;16.378;2022-11-23T12:00:27;6.28;;;5.68;;
63217;SDS011;49314;48.278;16.378;2022-11-23T12:03:03;9.40;;;5.45;;
63217;SDS011;49314;48.278;16.378;2022-11-23T12:10:39;8.20;;;5.43;;
63217;SDS011;49314;48.278;16.378;2022-11-23T12:13:08;5.20;;;4.70;;
63217;SDS011;49314;48.278;16.378;2022-11-23T12:15:39;5.75;;;5.25;;
63217;SDS011;49314;48.278;16.378;2022-11-23T12:21:03;5.32;;;4.88;;
63217;SDS011;49314;48.278;16.378;2022-11-23T12:28:35;5.53;;;5.13;;
63217;SDS011;49314;48.278;16.378;2022-11-23T12:31:09;4.15;;;3.85;;
63217;SDS011;49314;48.278;16.378;2022-11-23T12:38:55;5.28;;;4.97;;
63217;SDS011;49314;48.278;16.378;2022-11-23T12:46:37;6.35;;;5.72;;
63217;SDS011;49314;48.278;16.378;2022-11-23T12:49:14;6.85;;;6.40;;
63217;SDS011;49314;48.278;16.378;2022-11-23T12:54:33;5.57;;;5.07;;
63217;SDS011;49314;48.278;16.378;2022-11-23T12:57:23;6.15;;;5.80;;
63217;SDS011;49314;48.278;16.378;2022-11-23T13:00:02;5.60;;;5.18;;
63217;SDS011;49314;48.278;16.378;2022-11-23T13:02:44;6.25;;;5.78;;
63217;SDS011;49314;48.278;16.378;2022-11-23T13:13:06;4.80;;;4.45;;
63217;SDS011;49314;48.278;16.378;2022-11-23T13:23:32;5.13;;;4.63;;
63217;SDS011;49314;48.278;16.378;2022-11-23T13:26:11;4.88;;;4.47;;
63217;SDS011;49314;48.278;16.378;2022-11-23T13:28:37;4.85;;;4.45;;
63217;SDS011;49314;48.278;16.378;2022-11-23T13:33:40;4.80;;;4.50;;
63217;SDS011;49314;48.278;16.378;2022-11-23T13:36:08;5.43;;;4.95;;
63217;SDS011;49314;48.278;16.378;2022-11-23T13:38:35;5.57;;;5.18;;
63217;SDS011;49314;48.278;16.378;2022-11-23T13:41:00;4.82;;;4.43;;
63217;SDS011;49314;48.278;16.378;2022-11-23T13:48:51;5.35;;;5.05;;
63217;SDS011;49314;48.278;16.378;2022-11-23T13:51:24;5.72;;;5.43;;
63217;SDS011;49314;48.278;16.378;2022-11-23T13:53:51;5.20;;;4.80;;
63217;SDS011;49314;48.278;16.378;2022-11-23T13:58:51;5.30;;;4.85;;
63217;SDS011;49314;48.278;16.378;2022-11-23T14:04:34;3.92;;;3.72;;
63217;SDS011;49314;48.278;16.378;2022-11-23T14:11:50;5.73;;;5.40;;
63217;SDS011;49314;48.278;16.378;2022-11-23T14:14:18;5.35;;;4.95;;
63217;SDS011;49314;48.278;16.378;2022-11-23T14:16:52;5.60;;;5.30;;
63217;SDS011;49314;48.278;16.378;2022-11-23T14:19:31;6.20;;;5.88;;
63217;SDS011;49314;48.278;16.378;2022-11-23T14:22:05;5.03;;;4.63;;
63217;SDS011;49314;48.278;16.378;2022-11-23T14:40:28;6.47;;;5.95;;
63217;SDS011;49314;48.278;16.378;2022-11-23T14:42:55;5.00;;;4.63;;
63217;SDS011;49314;48.278;16.378;2022-11-23T14:45:22;5.32;;;4.82;;
63217;SDS011;49314;48.278;16.378;2022-11-23T14:47:48;5.38;;;5.07;;
63217;SDS011;49314;48.278;16.378;2022-11-23T14:50:24;5.88;;;5.47;;
63217;SDS011;49314;48.278;16.378;2022-11-23T14:52:49;6.55;;;6.18;;
63217;SDS011;49314;48.278;16.378;2022-11-23T14:55:18;4.80;;;4.50;;
63217;SDS011;49314;48.278;16.378;2022-11-23T14:57:44;5.85;;;5.55;;
63217;SDS011;49314;48.278;16.378;2022-11-23T15:00:23;5.90;;;5.50;;
63217;SDS011;49314;48.278;16.378;2022-11-23T15:02:49;5.75;;;5.38;;
63217;SDS011;49314;48.278;16.378;2022-11-23T15:05:17;6.32;;;5.93;;
63217;SDS011;49314;48.278;16.378;2022-11-23T15:10:23;5.40;;;5.10;;
63217;SDS011;49314;48.278;16.378;2022-11-23T15:12:50;5.38;;;5.07;;
63217;SDS011;49314;48.278;16.378;2022-11-23T15:15:19;5.47;;;5.00;;
63217;SDS011;49314;48.278;16.378;2022-11-23T15:17:52;5.88;;;5.47;;
63217;SDS011;49314;48.278;16.378;2022-11-23T15:20:17;5.00;;;4.60;;
63217;SDS011;49314;48.278;16.378;2022-11-23T15:22:43;5.60;;;5.30;;
63217;SDS011;49314;48.278;16.378;2022-11-23T15:25:10;5.50;;;5.18;;
63217;SDS011;49314;48.278;16.378;2022-11-23T15:27:37;5.30;;;5.00;;
63217;SDS011;49314;48.278;16.378;2022-11-23T15:30:12;5.35;;;5.00;;
63217;SDS011;49314;48.278;16.378;2022-11-23T15:32:38;4.55;;;4.25;;
63217;SDS011;49314;48.278;16.378;2022-11-23T15:35:09;5.50;;;5.20;;
63217;SDS011;49314;48.278;16.378;2022-11-23T15:37:36;5.43;;;5.13;;
63217;SDS011;49314;48.278;16.378;2022-11-23T15:40:05;5.78;;;5.38;;
63217;SDS011;49314;48.278;16.378;2022-11-23T15:42:31;5.30;;;5.00;;
63217;SDS011;49314;48.278;16.378;2022-11-23T15:44:56;6.03;;;5.65;;
63217;SDS011;49314;48.278;16.378;2022-11-23T15:47:23;5.38;;;4.97;;
63217;SDS011;49314;48.278;16.378;2022-11-23T15:49:51;6.25;;;5.85;;
63217;SDS011;49314;48.278;16.378;2022-11-23T15:52:18;5.93;;;5.63;;
63217;SDS011;49314;48.278;16.378;2022-11-23T15:54:44;6.05;;;5.65;;
63217;SDS011;49314;48.278;16.378;2022-11-23T15:57:13;6.28;;;5.78;;
63217;SDS011;49314;48.278;16.378;2022-11-23T16:00:01;5.97;;;5.57;;
63217;SDS011;49314;48.278;16.378;2022-11-23T16:02:26;6.13;;;5.72;;
63217;SDS011;49314;48.278;16.378;2022-11-23T16:07:52;6.05;;;5.55;;
63217;SDS011;49314;48.278;16.378;2022-11-23T16:12:50;5.35;;;4.95;;
63217;SDS011;49314;48.278;16.378;2022-11-23T16:15:37;6.82;;;6.28;;
63217;SDS011;49314;48.278;16.378;2022-11-23T16:18:05;6.35;;;5.90;;
63217;SDS011;49314;48.278;16.378;2022-11-23T16:20:42;5.40;;;5.03;;
63217;SDS011;49314;48.278;16.378;2022-11-23T16:23:10;6.00;;;5.60;;
63217;SDS011;49314;48.278;16.378;2022-11-23T16:25:38;5.88;;;5.45;;
63217;SDS011;49314;48.278;16.378;2022-11-23T16:28:04;6.33;;;5.93;;
63217;SDS011;49314;48.278;16.378;2022-11-23T16:30:37;6.07;;;5.68;;
63217;SDS011;49314;48.278;16.378;2022-11-23T16:33:03;6.68;;;6.18;;
63217;SDS011;49314;48.278;16.378;2022-11-23T16:35:28;5.47;;;5.18;;
63217;SDS011;49314;48.278;16.378;2022-11-23T16:37:53;5.13;;;4.83;;
63217;SDS011;49314;48.278;16.378;2022-11-23T16:40:18;5.53;;;5.23;;